sensor_id;sensor_type;location;lat;lon;timestamp;P1;durP1;ratioP1;P2;durP2;ratioP2
54665;SDS011;40566;50.006;36.180;2023-03-01T00:02:02;13.05;;;4.45;;
54665;SDS011;40566;50.006;36.180;2023-03-01T00:07:04;10.35;;;3.92;;
54665;SDS011;40566;50.006;36.180;2023-03-01T00:12:05;14.30;;;4.47;;
54665;SDS011;40566;50.006;36.180;2023-03-01T00:17:06;10.15;;;3.58;;
54665;SDS011;40566;50.006;36.180;2023-03-01T00:22:07;14.27;;;3.85;;
54665;SDS011;40566;50.006;36.180;2023-03-01T00:27:07;9.68;;;3.25;;
54665;SDS011;40566;50.006;36.180;2023-03-01T00:32:08;10.00;;;3.72;;
54665;SDS011;40566;50.006;36.180;2023-03-01T00:37:08;11.82;;;4.28;;
54665;SDS011;40566;50.006;36.180;2023-03-01T00:42:09;10.63;;;3.53;;
54665;SDS011;40566;50.006;36.180;2023-03-01T00:47:09;12.55;;;5.03;;
54665;SDS011;40566;50.006;36.180;2023-03-01T00:52:10;8.13;;;3.22;;
54665;SDS011;40566;50.006;36.180;2023-03-01T00:57:10;8.50;;;3.45;;
54665;SDS011;40566;50.006;36.180;2023-03-01T01:02:11;6.80;;;2.88;;
54665;SDS011;40566;50.006;36.180;2023-03-01T01:07:12;9.88;;;3.70;;
54665;SDS011;40566;50.006;36.180;2023-03-01T01:12:13;8.75;;;3.58;;
54665;SDS011;40566;50.006;36.180;2023-03-01T01:17:14;12.35;;;4.90;;
54665;SDS011;40566;50.006;36.180;2023-03-01T01:22:14;8.80;;;2.80;;
54665;SDS011;40566;50.006;36.180;2023-03-01T01:27:15;11.57;;;3.90;;
54665;SDS011;40566;50.006;36.180;2023-03-01T01:32:15;11.75;;;3.70;;
54665;SDS011;40566;50.006;36.180;2023-03-01T01:37:16;10.77;;;3.85;;
54665;SDS011;40566;50.006;36.180;2023-03-01T01:42:17;12.52;;;3.25;;
54665;SDS011;40566;50.006;36.180;2023-03-01T01:47:20;11.85;;;3.22;;
54665;SDS011;40566;50.006;36.180;2023-03-01T01:52:33;14.15;;;4.85;;
54665;SDS011;40566;50.006;36.180;2023-03-01T01:57:43;7.53;;;4.20;;
54665;SDS011;40566;50.006;36.180;2023-03-01T02:02:48;8.80;;;3.60;;
54665;SDS011;40566;50.006;36.180;2023-03-01T02:07:52;13.57;;;5.50;;
54665;SDS011;40566;50.006;36.180;2023-03-01T02:12:53;7.95;;;2.63;;
54665;SDS011;40566;50.006;36.180;2023-03-01T02:17:56;12.77;;;4.25;;
54665;SDS011;40566;50.006;36.180;2023-03-01T02:22:57;12.52;;;4.07;;
54665;SDS011;40566;50.006;36.180;2023-03-01T02:28:08;10.65;;;3.35;;
54665;SDS011;40566;50.006;36.180;2023-03-01T02:33:13;7.50;;;3.08;;
54665;SDS011;40566;50.006;36.180;2023-03-01T02:38:14;11.63;;;4.22;;
54665;SDS011;40566;50.006;36.180;2023-03-01T02:43:14;10.10;;;3.13;;
54665;SDS011;40566;50.006;36.180;2023-03-01T02:48:18;10.02;;;4.38;;
54665;SDS011;40566;50.006;36.180;2023-03-01T02:53:24;12.95;;;4.13;;
54665;SDS011;40566;50.006;36.180;2023-03-01T02:58:33;11.13;;;4.22;;
54665;SDS011;40566;50.006;36.180;2023-03-01T03:03:40;13.02;;;3.42;;
54665;SDS011;40566;50.006;36.180;2023-03-01T03:08:41;9.10;;;3.75;;
54665;SDS011;40566;50.006;36.180;2023-03-01T03:13:42;13.10;;;4.57;;
54665;SDS011;40566;50.006;36.180;2023-03-01T03:18:48;14.63;;;4.47;;
54665;SDS011;40566;50.006;36.180;2023-03-01T03:23:48;9.60;;;3.95;;
54665;SDS011;40566;50.006;36.180;2023-03-01T03:28:49;11.82;;;3.63;;
54665;SDS011;40566;50.006;36.180;2023-03-01T03:33:49;10.00;;;3.45;;
54665;SDS011;40566;50.006;36.180;2023-03-01T03:38:50;9.40;;;4.15;;
54665;SDS011;40566;50.006;36.180;2023-03-01T03:43:51;10.23;;;3.70;;
54665;SDS011;40566;50.006;36.180;2023-03-01T03:48:51;5.45;;;2.60;;
54665;SDS011;40566;50.006;36.180;2023-03-01T03:53:52;4.38;;;2.45;;
54665;SDS011;40566;50.006;36.180;2023-03-01T03:58:53;10.80;;;3.95;;
54665;SDS011;40566;50.006;36.180;2023-03-01T04:03:53;5.82;;;2.50;;
54665;SDS011;40566;50.006;36.180;2023-03-01T04:08:54;12.90;;;3.35;;
54665;SDS011;40566;50.006;36.180;2023-03-01T04:13:58;9.20;;;3.60;;
54665;SDS011;40566;50.006;36.180;2023-03-01T04:19:00;12.57;;;3.55;;
54665;SDS011;40566;50.006;36.180;2023-03-01T04:24:00;8.18;;;3.83;;
54665;SDS011;40566;50.006;36.180;2023-03-01T04:29:03;10.68;;;4.32;;
54665;SDS011;40566;50.006;36.180;2023-03-01T04:34:04;7.88;;;3.53;;
54665;SDS011;40566;50.006;36.180;2023-03-01T04:39:05;5.80;;;2.33;;
54665;SDS011;40566;50.006;36.180;2023-03-01T04:44:12;9.82;;;2.95;;
54665;SDS011;40566;50.006;36.180;2023-03-01T04:49:12;8.95;;;3.38;;
54665;SDS011;40566;50.006;36.180;2023-03-01T04:54:13;6.72;;;2.78;;
54665;SDS011;40566;50.006;36.180;2023-03-01T04:59:13;11.93;;;4.47;;
54665;SDS011;40566;50.006;36.180;2023-03-01T05:04:14;16.15;;;4.43;;
54665;SDS011;40566;50.006;36.180;2023-03-01T05:09:15;11.15;;;4.80;;
54665;SDS011;40566;50.006;36.180;2023-03-01T05:14:16;12.40;;;3.22;;
54665;SDS011;40566;50.006;36.180;2023-03-01T05:19:17;16.30;;;4.05;;
54665;SDS011;40566;50.006;36.180;2023-03-01T05:24:22;12.80;;;4.60;;
54665;SDS011;40566;50.006;36.180;2023-03-01T05:29:23;9.82;;;4.40;;
54665;SDS011;40566;50.006;36.180;2023-03-01T05:34:26;9.95;;;4.07;;
54665;SDS011;40566;50.006;36.180;2023-03-01T05:39:29;14.23;;;4.60;;
54665;SDS011;40566;50.006;36.180;2023-03-01T05:44:29;6.03;;;2.97;;
54665;SDS011;40566;50.006;36.180;2023-03-01T05:49:31;10.80;;;4.47;;
54665;SDS011;40566;50.006;36.180;2023-03-01T05:54:32;12.32;;;3.78;;
54665;SDS011;40566;50.006;36.180;2023-03-01T05:59:33;13.32;;;3.85;;
54665;SDS011;40566;50.006;36.180;2023-03-01T06:04:33;9.20;;;3.63;;
54665;SDS011;40566;50.006;36.180;2023-03-01T06:09:34;12.10;;;4.70;;
54665;SDS011;40566;50.006;36.180;2023-03-01T06:14:35;9.27;;;3.38;;
54665;SDS011;40566;50.006;36.180;2023-03-01T06:19:35;11.38;;;3.78;;
54665;SDS011;40566;50.006;36.180;2023-03-01T06:24:37;13.45;;;4.45;;
54665;SDS011;40566;50.006;36.180;2023-03-01T06:29:37;10.45;;;4.13;;
54665;SDS011;40566;50.006;36.180;2023-03-01T06:34:38;11.10;;;4.15;;
54665;SDS011;40566;50.006;36.180;2023-03-01T06:39:39;13.60;;;3.30;;
54665;SDS011;40566;50.006;36.180;2023-03-01T06:44:40;12.00;;;3.80;;
54665;SDS011;40566;50.006;36.180;2023-03-01T06:49:41;12.20;;;4.47;;
54665;SDS011;40566;50.006;36.180;2023-03-01T06:54:41;14.35;;;4.95;;
54665;SDS011;40566;50.006;36.180;2023-03-01T06:59:42;14.32;;;5.10;;
54665;SDS011;40566;50.006;36.180;2023-03-01T07:04:42;12.73;;;4.35;;
54665;SDS011;40566;50.006;36.180;2023-03-01T07:09:46;19.08;;;5.47;;
54665;SDS011;40566;50.006;36.180;2023-03-01T07:14:48;13.25;;;5.38;;
54665;SDS011;40566;50.006;36.180;2023-03-01T07:19:49;11.80;;;5.07;;
54665;SDS011;40566;50.006;36.180;2023-03-01T07:24:49;11.70;;;4.93;;
54665;SDS011;40566;50.006;36.180;2023-03-01T07:29:50;10.85;;;4.45;;
54665;SDS011;40566;50.006;36.180;2023-03-01T07:34:51;10.20;;;4.15;;
54665;SDS011;40566;50.006;36.180;2023-03-01T07:39:51;11.30;;;4.95;;
54665;SDS011;40566;50.006;36.180;2023-03-01T07:44:52;13.73;;;5.10;;
54665;SDS011;40566;50.006;36.180;2023-03-01T07:49:52;14.90;;;5.00;;
54665;SDS011;40566;50.006;36.180;2023-03-01T07:54:53;11.23;;;4.65;;
54665;SDS011;40566;50.006;36.180;2023-03-01T07:59:53;11.63;;;3.55;;
54665;SDS011;40566;50.006;36.180;2023-03-01T08:04:54;14.27;;;5.25;;
54665;SDS011;40566;50.006;36.180;2023-03-01T08:09:55;10.75;;;4.70;;
54665;SDS011;40566;50.006;36.180;2023-03-01T08:14:55;13.02;;;4.95;;
54665;SDS011;40566;50.006;36.180;2023-03-01T08:19:57;13.93;;;5.43;;
54665;SDS011;40566;50.006;36.180;2023-03-01T08:24:57;9.75;;;3.88;;
54665;SDS011;40566;50.006;36.180;2023-03-01T08:29:58;12.95;;;5.32;;
54665;SDS011;40566;50.006;36.180;2023-03-01T08:34:58;8.63;;;3.05;;
54665;SDS011;40566;50.006;36.180;2023-03-01T08:40:00;17.60;;;6.03;;
54665;SDS011;40566;50.006;36.180;2023-03-01T08:45:01;12.93;;;4.65;;
54665;SDS011;40566;50.006;36.180;2023-03-01T08:50:02;20.58;;;4.28;;
54665;SDS011;40566;50.006;36.180;2023-03-01T08:55:03;14.45;;;4.65;;
54665;SDS011;40566;50.006;36.180;2023-03-01T09:00:04;14.45;;;5.00;;
54665;SDS011;40566;50.006;36.180;2023-03-01T09:05:08;12.68;;;5.10;;
54665;SDS011;40566;50.006;36.180;2023-03-01T09:10:09;11.90;;;4.05;;
54665;SDS011;40566;50.006;36.180;2023-03-01T09:15:10;16.92;;;5.30;;
54665;SDS011;40566;50.006;36.180;2023-03-01T09:20:10;11.93;;;4.32;;
54665;SDS011;40566;50.006;36.180;2023-03-01T09:25:11;11.15;;;4.63;;
54665;SDS011;40566;50.006;36.180;2023-03-01T09:30:12;12.52;;;5.45;;
54665;SDS011;40566;50.006;36.180;2023-03-01T09:35:13;12.65;;;4.70;;
54665;SDS011;40566;50.006;36.180;2023-03-01T09:40:15;17.55;;;5.38;;
54665;SDS011;40566;50.006;36.180;2023-03-01T09:45:22;12.73;;;4.90;;
54665;SDS011;40566;50.006;36.180;2023-03-01T09:50:28;14.07;;;5.18;;
54665;SDS011;40566;50.006;36.180;2023-03-01T10:00:47;14.10;;;5.15;;
54665;SDS011;40566;50.006;36.180;2023-03-01T10:05:52;12.07;;;4.68;;
54665;SDS011;40566;50.006;36.180;2023-03-01T10:11:02;15.48;;;5.35;;
54665;SDS011;40566;50.006;36.180;2023-03-01T10:26:30;10.55;;;4.43;;
54665;SDS011;40566;50.006;36.180;2023-03-01T10:31:54;9.45;;;3.38;;
54665;SDS011;40566;50.006;36.180;2023-03-01T10:37:01;13.27;;;4.50;;
54665;SDS011;40566;50.006;36.180;2023-03-01T10:47:45;13.88;;;4.22;;
54665;SDS011;40566;50.006;36.180;2023-03-01T10:52:59;13.25;;;4.13;;
54665;SDS011;40566;50.006;36.180;2023-03-01T10:58:21;11.02;;;4.47;;
54665;SDS011;40566;50.006;36.180;2023-03-01T11:03:29;14.25;;;4.75;;
54665;SDS011;40566;50.006;36.180;2023-03-01T11:08:47;9.20;;;4.10;;
54665;SDS011;40566;50.006;36.180;2023-03-01T11:13:51;13.20;;;4.25;;
54665;SDS011;40566;50.006;36.180;2023-03-01T11:19:03;14.13;;;5.03;;
54665;SDS011;40566;50.006;36.180;2023-03-01T11:24:04;15.25;;;5.72;;
54665;SDS011;40566;50.006;36.180;2023-03-01T11:29:26;12.82;;;5.28;;
54665;SDS011;40566;50.006;36.180;2023-03-01T11:34:45;14.73;;;5.40;;
54665;SDS011;40566;50.006;36.180;2023-03-01T11:40:02;13.27;;;4.68;;
54665;SDS011;40566;50.006;36.180;2023-03-01T11:45:24;12.98;;;4.53;;
54665;SDS011;40566;50.006;36.180;2023-03-01T11:50:29;14.93;;;4.47;;
54665;SDS011;40566;50.006;36.180;2023-03-01T12:44:04;4.83;;;0.90;;
54665;SDS011;40566;50.006;36.180;2023-03-01T12:54:48;6.13;;;0.70;;
54665;SDS011;40566;50.006;36.180;2023-03-01T12:59:59;1.02;;;0.60;;
54665;SDS011;40566;50.006;36.180;2023-03-01T13:10:34;3.13;;;1.50;;
54665;SDS011;40566;50.006;36.180;2023-03-01T13:15:43;2.40;;;0.85;;
54665;SDS011;40566;50.006;36.180;2023-03-01T13:31:00;9.77;;;2.55;;
54665;SDS011;40566;50.006;36.180;2023-03-01T13:36:05;4.90;;;1.90;;
54665;SDS011;40566;50.006;36.180;2023-03-01T13:41:08;5.40;;;2.33;;
54665;SDS011;40566;50.006;36.180;2023-03-01T13:46:16;7.53;;;2.75;;
54665;SDS011;40566;50.006;36.180;2023-03-01T13:51:21;5.65;;;1.30;;
54665;SDS011;40566;50.006;36.180;2023-03-01T13:56:26;4.53;;;1.17;;
54665;SDS011;40566;50.006;36.180;2023-03-01T14:06:29;3.67;;;0.98;;
54665;SDS011;40566;50.006;36.180;2023-03-01T14:22:35;6.53;;;1.42;;
54665;SDS011;40566;50.006;36.180;2023-03-01T14:27:38;1.95;;;0.73;;
54665;SDS011;40566;50.006;36.180;2023-03-01T14:32:42;4.55;;;1.60;;
54665;SDS011;40566;50.006;36.180;2023-03-01T14:37:42;6.78;;;1.90;;
54665;SDS011;40566;50.006;36.180;2023-03-01T14:42:43;2.28;;;1.25;;
54665;SDS011;40566;50.006;36.180;2023-03-01T14:47:43;7.38;;;1.88;;
54665;SDS011;40566;50.006;36.180;2023-03-01T14:52:46;8.65;;;2.20;;
54665;SDS011;40566;50.006;36.180;2023-03-01T14:57:49;13.57;;;2.65;;
54665;SDS011;40566;50.006;36.180;2023-03-01T15:02:52;13.63;;;3.15;;
54665;SDS011;40566;50.006;36.180;2023-03-01T15:07:54;17.13;;;4.45;;
54665;SDS011;40566;50.006;36.180;2023-03-01T15:13:09;18.00;;;3.92;;
54665;SDS011;40566;50.006;36.180;2023-03-01T15:18:15;11.38;;;4.22;;
54665;SDS011;40566;50.006;36.180;2023-03-01T15:23:29;14.75;;;5.07;;
54665;SDS011;40566;50.006;36.180;2023-03-01T15:28:31;17.77;;;5.32;;
54665;SDS011;40566;50.006;36.180;2023-03-01T15:33:35;17.25;;;4.07;;
54665;SDS011;40566;50.006;36.180;2023-03-01T15:38:56;30.17;;;10.32;;
54665;SDS011;40566;50.006;36.180;2023-03-01T15:43:59;16.52;;;5.07;;
54665;SDS011;40566;50.006;36.180;2023-03-01T15:49:25;16.73;;;5.47;;
54665;SDS011;40566;50.006;36.180;2023-03-01T15:54:25;16.42;;;5.90;;
54665;SDS011;40566;50.006;36.180;2023-03-01T15:59:27;31.08;;;10.65;;
54665;SDS011;40566;50.006;36.180;2023-03-01T16:04:28;30.17;;;7.90;;
54665;SDS011;40566;50.006;36.180;2023-03-01T16:09:28;26.60;;;7.13;;
54665;SDS011;40566;50.006;36.180;2023-03-01T16:14:29;22.40;;;6.18;;
54665;SDS011;40566;50.006;36.180;2023-03-01T16:19:30;26.80;;;9.80;;
54665;SDS011;40566;50.006;36.180;2023-03-01T16:24:30;30.48;;;8.63;;
54665;SDS011;40566;50.006;36.180;2023-03-01T16:29:31;23.45;;;7.57;;
54665;SDS011;40566;50.006;36.180;2023-03-01T16:34:31;15.02;;;3.95;;
54665;SDS011;40566;50.006;36.180;2023-03-01T16:39:32;7.15;;;2.53;;
54665;SDS011;40566;50.006;36.180;2023-03-01T16:44:33;8.07;;;2.28;;
54665;SDS011;40566;50.006;36.180;2023-03-01T16:49:33;9.10;;;3.58;;
54665;SDS011;40566;50.006;36.180;2023-03-01T16:54:34;10.88;;;1.92;;
54665;SDS011;40566;50.006;36.180;2023-03-01T16:59:34;11.18;;;3.40;;
54665;SDS011;40566;50.006;36.180;2023-03-01T17:04:35;5.70;;;2.10;;
54665;SDS011;40566;50.006;36.180;2023-03-01T17:09:36;5.45;;;2.05;;
54665;SDS011;40566;50.006;36.180;2023-03-01T17:14:37;10.45;;;3.08;;
54665;SDS011;40566;50.006;36.180;2023-03-01T17:19:39;13.38;;;3.47;;
54665;SDS011;40566;50.006;36.180;2023-03-01T17:24:40;7.22;;;2.70;;
54665;SDS011;40566;50.006;36.180;2023-03-01T17:29:41;4.03;;;2.13;;
54665;SDS011;40566;50.006;36.180;2023-03-01T17:34:42;19.08;;;7.78;;
54665;SDS011;40566;50.006;36.180;2023-03-01T17:39:42;17.83;;;4.60;;
54665;SDS011;40566;50.006;36.180;2023-03-01T17:44:43;17.30;;;4.47;;
54665;SDS011;40566;50.006;36.180;2023-03-01T17:49:43;10.52;;;4.60;;
54665;SDS011;40566;50.006;36.180;2023-03-01T17:54:44;15.55;;;4.30;;
54665;SDS011;40566;50.006;36.180;2023-03-01T17:59:45;18.80;;;7.28;;
54665;SDS011;40566;50.006;36.180;2023-03-01T18:04:45;24.20;;;8.07;;
54665;SDS011;40566;50.006;36.180;2023-03-01T18:09:46;34.88;;;12.25;;
54665;SDS011;40566;50.006;36.180;2023-03-01T18:14:50;29.58;;;10.88;;
54665;SDS011;40566;50.006;36.180;2023-03-01T18:19:52;59.58;;;22.83;;
54665;SDS011;40566;50.006;36.180;2023-03-01T18:24:55;17.38;;;5.65;;
54665;SDS011;40566;50.006;36.180;2023-03-01T18:29:55;6.50;;;2.63;;
54665;SDS011;40566;50.006;36.180;2023-03-01T18:34:56;10.05;;;2.10;;
54665;SDS011;40566;50.006;36.180;2023-03-01T18:39:57;7.00;;;2.55;;
54665;SDS011;40566;50.006;36.180;2023-03-01T18:44:57;9.98;;;2.22;;
54665;SDS011;40566;50.006;36.180;2023-03-01T18:49:58;8.75;;;2.80;;
54665;SDS011;40566;50.006;36.180;2023-03-01T18:54:59;13.15;;;3.30;;
54665;SDS011;40566;50.006;36.180;2023-03-01T18:59:59;14.10;;;5.00;;
54665;SDS011;40566;50.006;36.180;2023-03-01T19:05:00;12.88;;;4.30;;
54665;SDS011;40566;50.006;36.180;2023-03-01T19:10:00;10.85;;;2.90;;
54665;SDS011;40566;50.006;36.180;2023-03-01T19:15:02;12.93;;;4.10;;
54665;SDS011;40566;50.006;36.180;2023-03-01T19:20:04;11.93;;;4.63;;
54665;SDS011;40566;50.006;36.180;2023-03-01T19:25:05;8.80;;;3.53;;
54665;SDS011;40566;50.006;36.180;2023-03-01T19:30:07;16.10;;;5.72;;
54665;SDS011;40566;50.006;36.180;2023-03-01T19:35:08;15.68;;;3.90;;
54665;SDS011;40566;50.006;36.180;2023-03-01T19:40:08;9.48;;;3.83;;
54665;SDS011;40566;50.006;36.180;2023-03-01T19:45:10;8.65;;;3.22;;
54665;SDS011;40566;50.006;36.180;2023-03-01T19:50:10;11.07;;;3.17;;
54665;SDS011;40566;50.006;36.180;2023-03-01T19:55:12;8.60;;;2.90;;
54665;SDS011;40566;50.006;36.180;2023-03-01T20:00:13;8.13;;;2.95;;
54665;SDS011;40566;50.006;36.180;2023-03-01T20:05:14;7.60;;;2.10;;
54665;SDS011;40566;50.006;36.180;2023-03-01T20:10:15;10.15;;;3.25;;
54665;SDS011;40566;50.006;36.180;2023-03-01T20:15:17;8.52;;;2.92;;
54665;SDS011;40566;50.006;36.180;2023-03-01T20:20:18;9.85;;;2.78;;
54665;SDS011;40566;50.006;36.180;2023-03-01T20:25:18;12.05;;;3.17;;
54665;SDS011;40566;50.006;36.180;2023-03-01T20:30:19;16.58;;;4.45;;
54665;SDS011;40566;50.006;36.180;2023-03-01T20:35:20;8.38;;;2.42;;
54665;SDS011;40566;50.006;36.180;2023-03-01T20:40:20;7.30;;;2.75;;
54665;SDS011;40566;50.006;36.180;2023-03-01T20:45:25;9.68;;;2.25;;
54665;SDS011;40566;50.006;36.180;2023-03-01T20:50:26;8.63;;;3.03;;
54665;SDS011;40566;50.006;36.180;2023-03-01T20:55:27;8.23;;;2.45;;
54665;SDS011;40566;50.006;36.180;2023-03-01T21:00:27;10.70;;;3.72;;
54665;SDS011;40566;50.006;36.180;2023-03-01T21:05:29;9.63;;;3.40;;
54665;SDS011;40566;50.006;36.180;2023-03-01T21:10:31;10.15;;;2.90;;
54665;SDS011;40566;50.006;36.180;2023-03-01T21:15:32;4.25;;;1.75;;
54665;SDS011;40566;50.006;36.180;2023-03-01T21:20:32;3.75;;;1.10;;
54665;SDS011;40566;50.006;36.180;2023-03-01T21:25:33;5.35;;;1.88;;
54665;SDS011;40566;50.006;36.180;2023-03-01T21:30:37;6.18;;;1.90;;
54665;SDS011;40566;50.006;36.180;2023-03-01T21:35:38;4.55;;;1.40;;
54665;SDS011;40566;50.006;36.180;2023-03-01T21:40:38;5.05;;;1.60;;
54665;SDS011;40566;50.006;36.180;2023-03-01T21:45:39;5.78;;;2.45;;
54665;SDS011;40566;50.006;36.180;2023-03-01T21:50:41;9.07;;;2.03;;
54665;SDS011;40566;50.006;36.180;2023-03-01T21:55:45;6.00;;;2.53;;
54665;SDS011;40566;50.006;36.180;2023-03-01T22:00:47;5.95;;;2.67;;
54665;SDS011;40566;50.006;36.180;2023-03-01T22:05:54;6.90;;;2.25;;
54665;SDS011;40566;50.006;36.180;2023-03-01T22:10:56;6.45;;;2.38;;
54665;SDS011;40566;50.006;36.180;2023-03-01T22:15:58;14.02;;;3.22;;
54665;SDS011;40566;50.006;36.180;2023-03-01T22:21:03;8.32;;;2.55;;
54665;SDS011;40566;50.006;36.180;2023-03-01T22:26:07;14.35;;;5.03;;
54665;SDS011;40566;50.006;36.180;2023-03-01T22:31:09;11.65;;;4.20;;
54665;SDS011;40566;50.006;36.180;2023-03-01T22:36:09;18.48;;;5.03;;
54665;SDS011;40566;50.006;36.180;2023-03-01T22:41:10;12.07;;;4.20;;
54665;SDS011;40566;50.006;36.180;2023-03-01T22:46:11;14.75;;;4.47;;
54665;SDS011;40566;50.006;36.180;2023-03-01T22:51:22;11.73;;;4.57;;
54665;SDS011;40566;50.006;36.180;2023-03-01T22:56:26;13.93;;;3.72;;
54665;SDS011;40566;50.006;36.180;2023-03-01T23:01:29;10.02;;;3.70;;
54665;SDS011;40566;50.006;36.180;2023-03-01T23:06:30;22.80;;;5.95;;
54665;SDS011;40566;50.006;36.180;2023-03-01T23:11:31;16.92;;;5.07;;
54665;SDS011;40566;50.006;36.180;2023-03-01T23:16:31;14.60;;;4.13;;
54665;SDS011;40566;50.006;36.180;2023-03-01T23:21:32;12.75;;;4.00;;
54665;SDS011;40566;50.006;36.180;2023-03-01T23:26:33;12.23;;;4.70;;
54665;SDS011;40566;50.006;36.180;2023-03-01T23:31:33;11.13;;;3.95;;
54665;SDS011;40566;50.006;36.180;2023-03-01T23:36:34;11.93;;;4.43;;
54665;SDS011;40566;50.006;36.180;2023-03-01T23:41:35;11.10;;;3.55;;
54665;SDS011;40566;50.006;36.180;2023-03-01T23:46:36;7.38;;;3.42;;
54665;SDS011;40566;50.006;36.180;2023-03-01T23:51:38;7.55;;;3.00;;
54665;SDS011;40566;50.006;36.180;2023-03-01T23:56:44;12.10;;;4.30;;
